Time;durP1;ratioP1;P1;durP2;ratioP2;P2;SDS_P1;SDS_P2;PMS_P1;PMS_P2;Temp;Humidity;BMP_temperature;BMP_pressure;BME280_temperature;BME280_humidity;BME280_pressure;Samples;Min_cycle;Max_cycle;Signal;HPM_P1;HPM_P2
2022/01/29 00:01:23;;;;;;;60.50;35.22;;;;;;;4.98;93.14;102912.19;5035476;28;20080;-72
2022/01/29 00:03:49;;;;;;;62.05;34.22;;;;;;;5.02;93.20;102909.50;5040594;28;20022;-73
2022/01/29 00:06:14;;;;;;;57.20;34.05;;;;;;;5.02;93.30;102898.97;5051144;28;20501;-73
2022/01/29 00:08:39;;;;;;;55.10;34.28;;;;;;;5.03;93.01;102892.78;5048845;28;20017;-74
2022/01/29 00:11:12;;;;;;;52.30;33.65;;;;;;;5.03;93.10;102882.25;5044290;28;20493;-73
2022/01/29 00:13:38;;;;;;;55.22;33.92;;;;;;;5.04;93.15;102879.59;5048804;28;20071;-73
2022/01/29 00:16:03;;;;;;;57.80;33.13;;;;;;;5.05;93.02;102877.84;5042179;28;20021;-73
2022/01/29 00:18:29;;;;;;;55.03;34.58;;;;;;;5.04;92.91;102873.47;5051090;28;20029;-74
2022/01/29 00:20:54;;;;;;;57.33;34.13;;;;;;;5.05;93.01;102864.69;5051206;28;20433;-73
2022/01/29 00:23:19;;;;;;;58.55;34.92;;;;;;;5.07;93.17;102866.38;5047591;28;20471;-73
2022/01/29 00:25:44;;;;;;;56.38;33.33;;;;;;;5.07;93.09;102866.38;5050841;28;20036;-72
2022/01/29 00:28:12;;;;;;;54.55;34.03;;;;;;;5.08;92.90;102857.56;5047693;28;20063;-73
2022/01/29 00:30:41;;;;;;;53.20;33.75;;;;;;;5.09;92.97;102867.19;5040934;28;20052;-73
2022/01/29 00:33:07;;;;;;;56.50;34.70;;;;;;;5.09;92.88;102867.19;5032675;28;20476;-73
2022/01/29 00:35:32;;;;;;;58.97;34.65;;;;;;;5.08;93.09;102854.94;5050932;28;20029;-73
2022/01/29 00:37:57;;;;;;;56.78;34.72;;;;;;;5.11;92.91;102852.25;5050792;28;20336;-73
2022/01/29 00:40:23;;;;;;;51.97;34.03;;;;;;;5.11;93.13;102848.72;5045870;28;20052;-73
2022/01/29 00:42:49;;;;;;;56.25;33.83;;;;;;;5.10;93.22;102839.09;5050974;28;20021;-73
2022/01/29 00:45:15;;;;;;;57.92;35.00;;;;;;;5.10;93.24;102847.88;5050624;28;20066;-72
2022/01/29 00:47:40;;;;;;;57.63;34.65;;;;;;;5.12;93.17;102853.97;5030013;28;20029;-73
2022/01/29 00:50:06;;;;;;;58.85;36.15;;;;;;;5.13;93.16;102854.81;5050387;28;20036;-73
2022/01/29 00:52:32;;;;;;;56.78;34.92;;;;;;;5.12;93.25;102848.69;5050137;28;20021;-73
2022/01/29 00:54:57;;;;;;;57.63;36.17;;;;;;;5.13;93.16;102842.53;5046728;28;20032;-73
2022/01/29 00:57:23;;;;;;;57.05;34.55;;;;;;;5.15;92.75;102835.47;5050777;28;20021;-74
2022/01/29 00:59:49;;;;;;;54.78;34.25;;;;;;;5.16;93.20;102833.69;5021487;28;20033;-73
2022/01/29 01:02:14;;;;;;;54.90;34.53;;;;;;;5.15;93.09;102827.56;5010996;28;20038;-73
2022/01/29 01:04:40;;;;;;;56.90;34.10;;;;;;;5.16;93.16;102829.31;5010852;28;20056;-74
2022/01/29 01:07:07;;;;;;;52.35;32.85;;;;;;;5.18;93.32;102826.63;5011136;28;20025;-71
2022/01/29 01:09:32;;;;;;;60.92;35.85;;;;;;;5.18;93.44;102816.97;5010912;28;20056;-74
2022/01/29 01:11:58;;;;;;;51.63;34.13;;;;;;;5.18;93.70;102808.19;5011049;28;20072;-72
2022/01/29 01:14:24;;;;;;;55.17;36.03;;;;;;;5.18;93.65;102809.06;5011412;28;20115;-73
2022/01/29 01:16:49;;;;;;;57.25;35.78;;;;;;;5.17;93.75;102804.69;5010928;28;20026;-73
2022/01/29 01:19:14;;;;;;;53.83;35.15;;;;;;;5.20;93.66;102795.84;5011356;28;20037;-73
2022/01/29 01:21:40;;;;;;;56.95;35.15;;;;;;;5.21;93.97;102796.72;5010873;28;20032;-73
2022/01/29 01:24:05;;;;;;;55.35;35.00;;;;;;;5.19;93.97;102789.69;5010463;28;20026;-72
2022/01/29 01:26:30;;;;;;;55.50;35.65;;;;;;;5.18;94.02;102777.44;5011128;28;20110;-73
2022/01/29 01:28:56;;;;;;;52.00;34.45;;;;;;;5.18;94.04;102766.91;5010727;28;20038;-73
2022/01/29 01:31:21;;;;;;;58.78;35.75;;;;;;;5.18;94.18;102758.16;5029100;28;20033;-73
2022/01/29 01:33:48;;;;;;;52.60;34.03;;;;;;;5.18;94.55;102763.41;5041190;28;20454;-72
2022/01/29 01:36:15;;;;;;;53.28;34.72;;;;;;;5.16;94.46;102757.28;5044491;28;20398;-73
2022/01/29 01:38:46;;;;;;;55.75;35.53;;;;;;;5.16;94.54;102752.03;5050251;28;20467;-73
2022/01/29 01:41:15;;;;;;;50.53;33.00;;;;;;;5.16;94.99;102752.91;5050280;28;20083;-73
2022/01/29 01:43:40;;;;;;;56.53;34.15;;;;;;;5.15;95.06;102750.31;5038063;28;20036;-73
2022/01/29 01:46:06;;;;;;;53.47;33.40;;;;;;;5.15;95.26;102755.59;5050162;28;20032;-73
2022/01/29 01:48:31;;;;;;;55.28;32.85;;;;;;;5.14;95.39;102753.84;5045028;28;20084;-73
2022/01/29 01:50:57;;;;;;;54.28;34.60;;;;;;;5.14;95.67;102756.47;5049770;28;20321;-73
2022/01/29 01:53:24;;;;;;;54.78;34.85;;;;;;;5.10;95.79;102741.66;5040127;28;20033;-73
2022/01/29 01:55:50;;;;;;;51.17;33.10;;;;;;;5.10;95.99;102737.25;5048611;28;20111;-73
2022/01/29 01:58:17;;;;;;;49.08;31.75;;;;;;;5.10;96.27;102745.16;5029393;28;20124;-73
2022/01/29 02:00:42;;;;;;;50.80;33.35;;;;;;;5.10;96.47;102737.25;5029897;28;20479;-73
2022/01/29 02:03:09;;;;;;;48.08;33.80;;;;;;;5.08;96.63;102732.91;5022309;28;20061;-73
2022/01/29 02:05:34;;;;;;;52.53;33.83;;;;;;;5.09;96.74;102722.31;5031672;28;20128;-73
2022/01/29 02:08:01;;;;;;;54.60;31.98;;;;;;;5.06;97.07;102730.28;5031112;28;20112;-73
2022/01/29 02:10:27;;;;;;;47.13;32.05;;;;;;;5.06;96.98;102725.03;5042880;28;20025;-73
2022/01/29 02:13:00;;;;;;;48.20;32.40;;;;;;;5.05;97.22;102711.91;5053609;28;20108;-73
2022/01/29 02:15:25;;;;;;;46.90;32.03;;;;;;;5.06;97.27;102698.69;5033429;28;20022;-72
2022/01/29 02:17:51;;;;;;;54.70;30.92;;;;;;;5.05;97.09;102702.25;5035778;28;20109;-72
2022/01/29 02:20:22;;;;;;;49.22;31.33;;;;;;;5.03;97.47;102700.53;5025496;28;20032;-74
2022/01/29 02:22:48;;;;;;;45.95;31.48;;;;;;;5.03;97.71;102700.53;5053487;28;20441;-73
2022/01/29 02:25:35;;;;;;;47.03;31.45;;;;;;;5.04;97.81;102704.91;5041992;28;20037;-73
2022/01/29 02:28:15;;;;;;;45.50;30.33;;;;;;;5.04;97.86;102694.38;5039695;28;20483;-73
2022/01/29 02:30:43;;;;;;;43.67;29.92;;;;;;;4.99;97.92;102697.97;5028337;28;20100;-73
2022/01/29 02:33:12;;;;;;;44.30;30.30;;;;;;;5.02;97.91;102697.03;5038249;28;20124;-73
2022/01/29 02:35:40;;;;;;;46.38;29.48;;;;;;;5.02;98.11;102696.19;5049900;28;20095;-74
2022/01/29 02:38:06;;;;;;;45.88;30.48;;;;;;;5.04;98.24;102692.59;5051875;28;20021;-73
2022/01/29 02:40:36;;;;;;;47.03;30.85;;;;;;;5.04;98.35;102689.97;5035012;28;20079;-73
2022/01/29 02:43:15;;;;;;;43.13;30.83;;;;;;;5.07;98.61;102691.69;5052944;28;20025;-73
2022/01/29 02:45:42;;;;;;;45.10;29.65;;;;;;;5.05;98.78;102681.19;5030643;28;20388;-72
2022/01/29 02:48:08;;;;;;;46.00;30.75;;;;;;;5.04;98.93;102681.22;5053171;28;20109;-71
2022/01/29 02:50:33;;;;;;;42.75;29.80;;;;;;;5.05;99.06;102678.53;5028384;28;20112;-71
2022/01/29 02:52:58;;;;;;;47.67;32.50;;;;;;;5.06;99.05;102684.66;5052154;28;20021;-71
2022/01/29 02:55:24;;;;;;;47.38;30.30;;;;;;;5.06;99.22;102676.75;5052672;28;20108;-72
2022/01/29 02:57:49;;;;;;;46.75;31.85;;;;;;;5.05;99.24;102662.75;5049371;28;20029;-73
2022/01/29 03:00:15;;;;;;;42.63;29.25;;;;;;;5.06;99.47;102671.50;5022301;28;20047;-72
2022/01/29 03:02:40;;;;;;;43.88;29.77;;;;;;;5.06;99.42;102674.13;5046667;28;20032;-71
2022/01/29 03:05:06;;;;;;;43.38;31.00;;;;;;;5.07;99.62;102667.97;5032366;28;20107;-72
2022/01/29 03:07:31;;;;;;;47.28;31.38;;;;;;;5.08;99.54;102667.06;5029501;28;20040;-71
2022/01/29 03:09:56;;;;;;;44.42;30.23;;;;;;;5.09;99.84;102664.38;5040739;28;20274;-72
2022/01/29 03:12:22;;;;;;;49.85;31.58;;;;;;;5.09;99.93;102672.28;5052593;28;20021;-72
2022/01/29 03:14:47;;;;;;;45.20;30.50;;;;;;;5.09;99.85;102655.63;5034319;28;20029;-72
2022/01/29 03:17:12;;;;;;;48.65;30.15;;;;;;;5.09;99.94;102653.00;5037636;28;20029;-73
2022/01/29 03:19:37;;;;;;;50.28;31.48;;;;;;;5.10;100.00;102652.09;5037759;28;20029;-72
2022/01/29 03:22:03;;;;;;;51.42;32.00;;;;;;;5.09;99.91;102650.34;5040218;28;20079;-71
2022/01/29 03:24:28;;;;;;;45.88;29.92;;;;;;;5.10;99.82;102649.47;5038625;28;20032;-72
2022/01/29 03:26:53;;;;;;;46.53;29.77;;;;;;;5.12;99.97;102642.38;5051400;28;20433;-72
2022/01/29 03:29:19;;;;;;;49.05;31.67;;;;;;;5.12;100.00;102632.72;5041174;28;20026;-72
2022/01/29 03:31:44;;;;;;;53.08;31.52;;;;;;;5.12;100.00;102632.72;5033138;28;20025;-72
2022/01/29 03:34:09;;;;;;;50.63;31.92;;;;;;;5.12;100.00;102634.47;5051674;28;20079;-72
2022/01/29 03:36:35;;;;;;;52.33;32.70;;;;;;;5.12;100.00;102624.81;5051442;28;20470;-72
2022/01/29 03:39:01;;;;;;;50.17;31.73;;;;;;;5.13;100.00;102634.44;5049731;28;20020;-73
2022/01/29 03:41:26;;;;;;;49.47;31.77;;;;;;;5.13;100.00;102625.66;5037796;28;20036;-73
2022/01/29 03:43:54;;;;;;;51.33;31.85;;;;;;;5.14;100.00;102620.34;5051801;28;20534;-72
2022/01/29 03:46:19;;;;;;;51.20;30.92;;;;;;;5.15;100.00;102605.44;5050349;28;20029;-73
2022/01/29 03:48:44;;;;;;;50.90;32.50;;;;;;;5.15;100.00;102602.81;5047778;28;20036;-72
2022/01/29 03:51:10;;;;;;;51.60;32.45;;;;;;;5.15;100.00;102602.81;5047588;28;20025;-72
2022/01/29 03:53:35;;;;;;;49.88;31.25;;;;;;;5.15;100.00;102614.19;5038415;28;20091;-72
2022/01/29 03:56:00;;;;;;;48.03;31.13;;;;;;;5.15;100.00;102603.66;5051474;28;20036;-72
2022/01/29 03:58:25;;;;;;;55.17;30.80;;;;;;;5.17;100.00;102606.25;5033930;28;20038;-72
2022/01/29 04:00:51;;;;;;;51.65;29.85;;;;;;;5.18;100.00;102597.47;5031694;28;20028;-72
2022/01/29 04:03:16;;;;;;;44.80;29.42;;;;;;;5.20;100.00;102600.91;5040087;28;20026;-72
2022/01/29 04:05:41;;;;;;;46.47;29.70;;;;;;;5.19;100.00;102594.75;5040036;28;20098;-73
2022/01/29 04:08:14;;;;;;;50.97;28.48;;;;;;;5.18;100.00;102590.41;5031457;28;20068;-72
2022/01/29 04:10:39;;;;;;;42.95;27.55;;;;;;;5.24;100.00;102599.91;5044749;28;20040;-72
2022/01/29 04:13:06;;;;;;;43.65;28.48;;;;;;;5.23;100.00;102592.03;5031361;28;20029;-72
2022/01/29 04:15:31;;;;;;;45.92;26.77;;;;;;;5.27;100.00;102596.34;5040779;28;20454;-72
2022/01/29 04:17:56;;;;;;;44.10;28.75;;;;;;;5.26;100.00;102600.75;5051166;28;20105;-72
2022/01/29 04:20:22;;;;;;;42.55;26.52;;;;;;;5.29;100.00;102595.38;5047504;28;20021;-71
2022/01/29 04:22:47;;;;;;;41.80;27.05;;;;;;;5.31;100.00;102595.34;5051171;28;20033;-72
2022/01/29 04:25:12;;;;;;;43.00;27.08;;;;;;;5.30;100.00;102585.72;5036243;28;20033;-73
2022/01/29 04:27:42;;;;;;;43.22;28.02;;;;;;;5.30;100.00;102589.22;5045193;28;20034;-72
2022/01/29 04:30:31;;;;;;;41.88;27.60;;;;;;;5.33;100.00;102583.88;5032812;28;20056;-71
2022/01/29 04:33:02;;;;;;;40.13;26.60;;;;;;;5.35;100.00;102570.66;5038117;28;20021;-72
2022/01/29 04:35:29;;;;;;;42.00;26.77;;;;;;;5.36;100.00;102578.53;5041188;28;20457;-72
2022/01/29 04:37:54;;;;;;;44.45;28.05;;;;;;;5.37;100.00;102574.97;5035005;28;20029;-71
2022/01/29 04:40:20;;;;;;;46.22;28.10;;;;;;;5.38;100.00;102574.06;5036892;28;20540;-71
2022/01/29 04:42:46;;;;;;;45.55;27.80;;;;;;;5.41;100.00;102572.25;5032823;28;20034;-70
2022/01/29 04:45:11;;;;;;;44.78;28.25;;;;;;;5.42;100.00;102568.72;5046495;28;20032;-71
2022/01/29 04:47:36;;;;;;;44.03;28.35;;;;;;;5.43;100.00;102568.69;5050559;28;20025;-71
2022/01/29 04:50:03;;;;;;;46.50;28.08;;;;;;;5.46;100.00;102565.09;5031387;28;20098;-71
2022/01/29 04:52:29;;;;;;;43.85;28.05;;;;;;;5.48;100.00;102561.53;5044510;28;20036;-71
2022/01/29 04:54:54;;;;;;;48.00;28.83;;;;;;;5.49;100.00;102555.31;5035695;28;20178;-71
2022/01/29 04:57:19;;;;;;;45.90;27.75;;;;;;;5.50;100.00;102554.44;5031977;28;20033;-72
2022/01/29 04:59:45;;;;;;;44.53;28.23;;;;;;;5.52;100.00;102546.47;5050587;28;20032;-72
2022/01/29 05:02:10;;;;;;;44.67;28.98;;;;;;;5.54;100.00;102552.56;5035256;28;20483;-72
2022/01/29 05:04:35;;;;;;;49.03;29.73;;;;;;;5.56;100.00;102545.47;5042575;28;20032;-72
2022/01/29 05:07:00;;;;;;;46.90;29.05;;;;;;;5.57;100.00;102544.56;5025980;28;20103;-71
2022/01/29 05:09:26;;;;;;;42.95;27.55;;;;;;;5.59;100.00;102540.13;5047523;28;20056;-72
2022/01/29 05:11:53;;;;;;;49.83;30.10;;;;;;;5.60;100.00;102544.50;5048747;28;20016;-71
2022/01/29 05:27:55;;;;;;;54.42;31.85;;;;;;;5.71;100.00;102513.41;5044265;28;20398;-71
2022/01/29 05:30:21;;;;;;;52.47;32.70;;;;;;;5.73;100.00;102516.03;5050274;28;20088;-72
2022/01/29 05:32:46;;;;;;;54.72;32.20;;;;;;;5.73;100.00;102521.28;5050243;28;20025;-72
2022/01/29 05:35:11;;;;;;;52.03;32.80;;;;;;;5.75;100.00;102512.41;5034839;28;20379;-72
2022/01/29 05:37:36;;;;;;;51.22;31.38;;;;;;;5.76;100.00;102518.53;5050841;28;20076;-71
2022/01/29 05:40:02;;;;;;;51.90;32.40;;;;;;;5.77;100.00;102522.06;5040032;28;20056;-73
2022/01/29 05:42:27;;;;;;;49.25;31.63;;;;;;;5.78;100.00;102523.75;5066281;28;20529;-71
2022/01/29 05:44:53;;;;;;;50.10;32.50;;;;;;;5.80;100.00;102527.25;5054074;28;20028;-71
2022/01/29 05:47:18;;;;;;;49.10;31.70;;;;;;;5.81;100.00;102524.56;5039962;28;20075;-72
2022/01/29 05:49:43;;;;;;;47.65;32.22;;;;;;;5.83;100.00;102524.50;5044009;28;20379;-71
2022/01/29 05:52:08;;;;;;;55.83;33.85;;;;;;;5.84;100.00;102513.91;5031109;28;20029;-71
2022/01/29 05:54:34;;;;;;;54.05;33.88;;;;;;;5.85;100.00;102512.16;5032843;28;20055;-71
2022/01/29 05:56:59;;;;;;;51.78;32.15;;;;;;;5.85;100.00;102507.72;5029729;28;20044;-72
2022/01/29 05:59:24;;;;;;;55.22;33.97;;;;;;;5.87;100.00;102516.44;5040861;28;20087;-72
2022/01/29 06:01:49;;;;;;;49.58;32.20;;;;;;;5.90;100.00;102502.31;5026579;28;20028;-72
2022/01/29 06:04:15;;;;;;;49.70;33.45;;;;;;;5.90;100.00;102511.09;5050710;28;20051;-71
2022/01/29 06:06:40;;;;;;;52.42;33.67;;;;;;;5.92;100.00;102509.25;5044803;28;20048;-71
2022/01/29 06:09:05;;;;;;;52.42;33.28;;;;;;;5.95;100.00;102504.84;5038895;28;20045;-72
2022/01/29 06:11:32;;;;;;;59.22;34.58;;;;;;;5.97;100.00;102500.41;5032326;28;20029;-71
2022/01/29 06:13:57;;;;;;;53.42;32.88;;;;;;;5.96;100.00;102502.16;5040257;28;20063;-71
2022/01/29 06:16:22;;;;;;;50.58;33.65;;;;;;;5.99;100.00;102495.94;5049834;28;20029;-71
2022/01/29 06:18:48;;;;;;;48.45;33.85;;;;;;;6.01;100.00;102502.00;5033459;28;20025;-71
2022/01/29 06:21:14;;;;;;;55.97;34.72;;;;;;;6.03;100.00;102502.81;5033643;28;20396;-72
2022/01/29 06:23:39;;;;;;;51.15;33.47;;;;;;;6.03;100.00;102498.44;5040696;28;20674;-72
2022/01/29 06:26:09;;;;;;;50.63;33.88;;;;;;;6.04;100.00;102497.50;5054681;28;20029;-72
2022/01/29 06:28:35;;;;;;;50.50;33.15;;;;;;;6.06;100.00;102493.06;5028487;28;20663;-72
2022/01/29 06:31:01;;;;;;;55.08;33.92;;;;;;;6.10;100.00;102489.41;5052204;28;20083;-72
2022/01/29 06:33:26;;;;;;;53.22;33.13;;;;;;;6.09;100.00;102487.66;5053646;28;20025;-72
2022/01/29 06:35:52;;;;;;;50.58;34.03;;;;;;;6.13;100.00;102485.81;5034088;28;20080;-71
2022/01/29 06:38:17;;;;;;;52.90;34.30;;;;;;;6.14;100.00;102492.81;5046578;28;20029;-72
2022/01/29 06:40:43;;;;;;;52.15;34.08;;;;;;;6.16;100.00;102484.84;5043851;28;20041;-72
2022/01/29 06:43:09;;;;;;;52.13;33.60;;;;;;;6.17;100.00;102479.53;5053195;28;20054;-71
2022/01/29 06:45:36;;;;;;;52.03;35.30;;;;;;;6.21;100.00;102485.56;5042378;28;20033;-71
2022/01/29 06:48:03;;;;;;;46.80;33.55;;;;;;;6.22;100.00;102484.66;5052744;28;20029;-72
2022/01/29 06:50:28;;;;;;;50.90;33.70;;;;;;;6.24;100.00;102480.19;5050936;28;20032;-72
2022/01/29 06:52:53;;;;;;;48.65;33.50;;;;;;;6.24;100.00;102475.78;5034110;28;20029;-72
2022/01/29 06:55:19;;;;;;;47.72;33.28;;;;;;;6.25;100.00;102482.78;5052833;28;20451;-72
2022/01/29 06:57:45;;;;;;;49.45;33.83;;;;;;;6.26;100.00;102475.72;5035578;28;20229;-73
2022/01/29 07:00:11;;;;;;;49.35;33.95;;;;;;;6.27;100.00;102466.91;5033331;28;20029;-72
2022/01/29 07:02:36;;;;;;;46.10;33.05;;;;;;;6.30;100.00;102467.66;5047182;28;20035;-72
2022/01/29 07:05:04;;;;;;;48.30;35.97;;;;;;;6.35;100.00;102456.09;5025457;28;20030;-71
2022/01/29 07:07:29;;;;;;;47.88;33.10;;;;;;;6.35;100.00;102462.25;5028839;28;20076;-71
2022/01/29 07:09:54;;;;;;;48.13;34.60;;;;;;;6.39;100.00;102463.00;5045759;28;20018;-71
2022/01/29 07:12:20;;;;;;;45.47;33.03;;;;;;;6.39;100.00;102455.94;5039878;28;20028;-71
2022/01/29 07:14:49;;;;;;;44.67;31.75;;;;;;;6.41;100.00;102454.13;5034293;28;20040;-71
2022/01/29 07:17:17;;;;;;;43.43;31.50;;;;;;;6.43;100.00;102454.94;5052402;28;20029;-71
2022/01/29 07:19:42;;;;;;;43.58;32.92;;;;;;;6.44;100.00;102445.22;5048486;28;20033;-72
2022/01/29 07:22:08;;;;;;;45.20;33.05;;;;;;;6.48;100.00;102446.88;5024069;28;20041;-71
2022/01/29 07:24:34;;;;;;;42.75;31.52;;;;;;;6.47;100.00;102447.78;5030267;28;20529;-72
2022/01/29 07:26:59;;;;;;;41.45;31.55;;;;;;;6.51;100.00;102448.53;5045426;28;20433;-71
2022/01/29 07:29:25;;;;;;;44.85;32.85;;;;;;;6.52;100.00;102447.63;5035143;28;20049;-72
2022/01/29 07:31:50;;;;;;;42.83;30.90;;;;;;;6.52;100.00;102447.63;5044046;28;20079;-71
2022/01/29 07:34:17;;;;;;;42.75;32.22;;;;;;;6.56;100.00;102457.16;5031240;28;20068;-71
2022/01/29 07:36:42;;;;;;;41.72;30.30;;;;;;;6.57;100.00;102458.88;5041736;28;20037;-72
2022/01/29 07:39:07;;;;;;;47.38;31.85;;;;;;;6.58;100.00;102453.56;5045120;28;20022;-72
2022/01/29 07:41:32;;;;;;;43.13;31.40;;;;;;;6.59;100.00;102446.50;5026275;28;20453;-72
2022/01/29 07:43:58;;;;;;;43.72;31.60;;;;;;;6.60;100.00;102446.44;5023633;28;20033;-72
2022/01/29 07:46:23;;;;;;;42.83;32.33;;;;;;;6.62;100.00;102449.03;5020338;28;20084;-71
2022/01/29 07:48:48;;;;;;;42.92;30.58;;;;;;;6.64;100.00;102442.78;5016717;28;20021;-71
2022/01/29 07:51:13;;;;;;;40.15;31.17;;;;;;;6.68;100.00;102446.19;5015620;28;20113;-72
2022/01/29 07:53:39;;;;;;;43.28;31.98;;;;;;;6.69;100.00;102442.63;5013121;28;20326;-71
2022/01/29 07:56:04;;;;;;;41.72;31.92;;;;;;;6.73;100.00;102441.59;5016554;28;20404;-71
2022/01/29 07:58:29;;;;;;;41.03;31.08;;;;;;;6.74;100.00;102432.75;5014404;28;20041;-72
2022/01/29 08:00:55;;;;;;;41.55;31.90;;;;;;;6.75;100.00;102429.22;5015498;28;20033;-71
2022/01/29 08:03:20;;;;;;;43.92;32.60;;;;;;;6.79;100.00;102432.59;5015136;28;20037;-71
2022/01/29 08:05:45;;;;;;;41.10;31.35;;;;;;;6.80;100.00;102432.53;5018761;28;20058;-72
2022/01/29 08:08:11;;;;;;;41.90;32.40;;;;;;;6.82;100.00;102422.78;5015305;28;20095;-72
2022/01/29 08:10:36;;;;;;;40.15;30.73;;;;;;;6.84;100.00;102430.66;5014676;28;20046;-71
2022/01/29 08:13:02;;;;;;;39.13;30.40;;;;;;;6.86;100.00;102428.81;5012276;28;20446;-71
2022/01/29 08:15:27;;;;;;;41.60;31.35;;;;;;;6.92;100.00;102430.41;5023557;28;20038;-71
2022/01/29 08:17:52;;;;;;;44.00;31.10;;;;;;;6.94;100.00;102423.28;5013434;28;20022;-70
2022/01/29 08:20:18;;;;;;;43.22;30.88;;;;;;;6.98;100.00;102422.25;5011502;28;20100;-72
2022/01/29 08:22:43;;;;;;;38.85;30.25;;;;;;;6.99;100.00;102414.25;5013079;28;20034;-72
2022/01/29 08:25:09;;;;;;;38.92;30.58;;;;;;;7.02;100.00;102411.50;5022080;28;20115;-72
2022/01/29 08:27:34;;;;;;;39.22;31.33;;;;;;;7.06;100.00;102407.00;5028992;28;20119;-71
2022/01/29 08:29:59;;;;;;;39.03;31.77;;;;;;;7.09;100.00;102404.22;5017609;28;20021;-71
2022/01/29 08:32:25;;;;;;;41.53;30.77;;;;;;;7.12;100.00;102403.25;5013296;28;20034;-72
2022/01/29 08:34:50;;;;;;;36.70;29.95;;;;;;;7.15;100.00;102413.72;5038148;28;20052;-72
2022/01/29 08:37:15;;;;;;;35.53;29.45;;;;;;;7.15;100.00;102401.34;5046533;28;20036;-72
2022/01/29 08:39:41;;;;;;;36.47;28.85;;;;;;;7.20;100.00;102401.19;5029931;28;20063;-71
2022/01/29 08:42:08;;;;;;;36.90;29.13;;;;;;;7.23;100.00;102395.78;5019498;28;20033;-70
2022/01/29 08:44:34;;;;;;;36.17;29.67;;;;;;;7.26;100.00;102392.16;5016821;28;20116;-71
2022/01/29 08:46:59;;;;;;;36.53;29.27;;;;;;;7.28;100.00;102392.94;5012956;28;20102;-71
2022/01/29 08:49:25;;;;;;;34.35;28.63;;;;;;;7.31;100.00;102379.63;5017029;28;20029;-72
2022/01/29 08:51:51;;;;;;;36.60;28.33;;;;;;;7.33;100.00;102380.44;5013491;28;20073;-72
2022/01/29 08:54:17;;;;;;;34.53;28.38;;;;;;;7.33;100.00;102383.94;5020458;28;20021;-72
2022/01/29 08:56:42;;;;;;;36.63;30.45;;;;;;;7.37;100.00;102379.41;5047735;28;20030;-71
2022/01/29 08:59:07;;;;;;;34.45;28.90;;;;;;;7.42;100.00;102385.38;5018907;28;20063;-71
2022/01/29 09:01:33;;;;;;;33.00;28.25;;;;;;;7.44;100.00;102383.50;5042311;28;20049;-71
2022/01/29 09:03:59;;;;;;;34.40;28.85;;;;;;;7.45;100.00;102387.03;5028175;28;20870;-71
2022/01/29 09:06:24;;;;;;;36.50;28.20;;;;;;;7.47;100.00;102375.47;5036372;28;20060;-72
2022/01/29 09:08:51;;;;;;;34.78;28.70;;;;;;;7.47;100.00;102370.19;5020914;28;20034;-73
2022/01/29 09:11:17;;;;;;;33.42;27.65;;;;;;;7.47;100.00;102377.25;5036177;28;20491;-72
2022/01/29 09:13:43;;;;;;;36.60;26.80;;;;;;;7.52;100.00;102368.22;5049037;28;20024;-71
2022/01/29 09:16:08;;;;;;;32.13;27.25;;;;;;;7.55;100.00;102364.59;5033812;28;20546;-72
2022/01/29 09:18:34;;;;;;;32.33;25.40;;;;;;;7.57;100.00;102368.91;5010399;28;20026;-70
2022/01/29 09:20:59;;;;;;;34.42;27.10;;;;;;;7.60;100.00;102370.56;5015434;28;20539;-71
2022/01/29 09:23:25;;;;;;;33.03;26.63;;;;;;;7.63;100.00;102366.94;5033477;28;20072;-71
2022/01/29 09:25:50;;;;;;;29.80;25.73;;;;;;;7.64;100.00;102366.88;5020729;28;20052;-71
2022/01/29 09:28:16;;;;;;;29.52;24.95;;;;;;;7.66;100.00;102364.16;5034007;28;20044;-71
2022/01/29 09:30:43;;;;;;;29.08;25.30;;;;;;;7.71;100.00;102364.84;5034921;28;20116;-70
2022/01/29 09:33:08;;;;;;;29.45;25.23;;;;;;;7.71;100.00;102359.53;5030798;28;20028;-69
2022/01/29 09:35:34;;;;;;;29.92;24.77;;;;;;;7.76;100.00;102363.75;5048029;28;20037;-69
2022/01/29 09:37:59;;;;;;;34.20;25.10;;;;;;;7.79;100.00;102360.09;5033504;28;20080;-71
2022/01/29 09:40:25;;;;;;;31.90;24.92;;;;;;;7.78;100.00;102361.91;5031165;28;20098;-73
2022/01/29 09:42:51;;;;;;;27.30;23.13;;;;;;;7.84;100.00;102370.50;5038638;28;20026;-72
2022/01/29 09:45:21;;;;;;;31.42;23.70;;;;;;;7.85;100.00;102369.59;5045616;28;20032;-72
2022/01/29 09:47:48;;;;;;;29.48;23.65;;;;;;;7.90;100.00;102362.31;5051944;28;20035;-73
2022/01/29 09:50:16;;;;;;;29.42;24.00;;;;;;;7.92;100.00;102365.75;5045737;28;20252;-72
2022/01/29 09:52:42;;;;;;;27.02;23.77;;;;;;;7.94;100.00;102366.56;5032094;28;20022;-71
2022/01/29 09:55:08;;;;;;;29.67;24.75;;;;;;;7.96;100.00;102362.94;5029814;28;20490;-72
2022/01/29 09:57:34;;;;;;;25.50;22.80;;;;;;;7.99;100.00;102369.88;5035228;28;20021;-73
2022/01/29 10:00:00;;;;;;;31.65;25.05;;;;;;;8.03;100.00;102375.94;5038861;28;20445;-72
2022/01/29 10:02:25;;;;;;;28.98;24.27;;;;;;;8.04;100.00;102359.94;5040947;28;20029;-72
2022/01/29 10:04:56;;;;;;;26.77;22.80;;;;;;;8.07;100.00;102365.13;5034876;28;20029;-72
2022/01/29 10:07:28;;;;;;;27.17;24.27;;;;;;;8.12;100.00;102360.50;5026542;28;20136;-72
2022/01/29 10:09:56;;;;;;;28.67;23.48;;;;;;;8.15;99.89;102354.22;5042706;28;20029;-69
2022/01/29 10:12:30;;;;;;;27.67;23.85;;;;;;;8.19;99.86;102365.53;5054009;28;20050;-72
2022/01/29 10:15:02;;;;;;;31.98;24.02;;;;;;;8.21;99.62;102355.75;5033327;28;20029;-71
2022/01/29 10:17:48;;;;;;;25.60;22.65;;;;;;;8.25;99.41;102355.56;5022074;28;20037;-72
2022/01/29 10:20:20;;;;;;;26.88;23.08;;;;;;;8.29;99.15;102349.22;5017713;28;20040;-72
2022/01/29 10:22:48;;;;;;;25.88;22.65;;;;;;;8.31;98.72;102347.34;5028466;28;20692;-72
2022/01/29 10:25:19;;;;;;;29.38;23.50;;;;;;;8.34;98.59;102349.88;5041527;28;20453;-72
2022/01/29 10:28:09;;;;;;;32.97;23.40;;;;;;;8.39;98.50;102340.88;5042208;28;20353;-72
2022/01/29 10:30:37;;;;;;;27.17;22.05;;;;;;;8.41;98.22;102337.25;5047534;28;20087;-71
2022/01/29 10:33:19;;;;;;;25.15;21.10;;;;;;;8.46;97.69;102335.28;5052656;28;20037;-71
2022/01/29 10:35:52;;;;;;;24.08;20.73;;;;;;;8.49;97.23;102321.91;5054824;28;20017;-71
2022/01/29 10:38:23;;;;;;;24.85;20.85;;;;;;;8.51;97.14;102320.03;5056386;28;20036;-72
2022/01/29 10:41:21;;;;;;;24.83;20.80;;;;;;;8.57;97.13;102320.69;5046683;28;20113;-72
2022/01/29 10:46:55;;;;;;;23.83;19.02;;;;;;;8.62;96.61;102316.06;5055930;28;20034;-72
2022/01/29 10:49:22;;;;;;;22.80;18.90;;;;;;;8.63;96.49;102301.91;5060348;28;20051;-72
2022/01/29 10:52:04;;;;;;;22.23;19.83;;;;;;;8.65;96.27;102305.31;5059500;28;20096;-71
2022/01/29 10:54:32;;;;;;;20.08;17.13;;;;;;;8.66;95.58;102299.97;5049472;28;20092;-71
2022/01/29 10:57:02;;;;;;;18.77;15.63;;;;;;;8.69;95.38;102298.94;5052553;28;20029;-71
2022/01/29 10:59:31;;;;;;;22.13;16.15;;;;;;;8.74;95.08;102301.41;5050738;28;20041;-71
2022/01/29 11:01:58;;;;;;;19.45;15.68;;;;;;;8.75;94.60;102296.03;5061609;28;20032;-72
2022/01/29 11:04:27;;;;;;;18.35;15.75;;;;;;;8.79;94.94;102299.38;5024089;28;20061;-71
2022/01/29 11:06:53;;;;;;;17.08;14.25;;;;;;;8.82;94.41;102284.22;5031968;28;20041;-72
2022/01/29 11:09:18;;;;;;;16.33;13.30;;;;;;;8.86;94.35;102290.25;5029021;28;20056;-72
2022/01/29 11:11:45;;;;;;;14.95;12.65;;;;;;;8.90;94.02;102286.50;5040502;28;20029;-72
2022/01/29 11:14:17;;;;;;;14.38;12.57;;;;;;;8.95;93.81;102291.59;5053421;28;20037;-72
2022/01/29 11:16:43;;;;;;;12.95;11.18;;;;;;;8.96;93.39;102286.25;5024343;28;20021;-72
2022/01/29 11:19:09;;;;;;;13.63;10.95;;;;;;;8.98;93.04;102283.53;5032084;28;20041;-71
2022/01/29 11:21:36;;;;;;;13.57;10.35;;;;;;;8.99;92.78;102270.19;5038812;28;20491;-71
2022/01/29 11:24:02;;;;;;;12.48;9.27;;;;;;;9.01;92.63;102273.63;5039980;28;20391;-71
2022/01/29 11:26:31;;;;;;;11.70;8.90;;;;;;;9.06;92.52;102265.47;5043672;28;20077;-72